Time;durP1;ratioP1;P1;durP2;ratioP2;P2;SDS_P1;SDS_P2;PMS_P1;PMS_P2;Temp;Humidity;BMP_temperature;BMP_pressure;BME280_temperature;BME280_humidity;BME280_pressure;Samples;Min_cycle;Max_cycle;Signal;HPM_P1;HPM_P2
2024/01/10 00:01:17;;;;;;;4.47;1.77;;;-3273.20;54.00;;;;;;5057613;28;20074;-68
2024/01/10 00:03:42;;;;;;;0.77;0.77;;;-3273.20;53.90;;;;;;5071372;28;20033;-68
2024/01/10 00:06:08;;;;;;;0.80;0.80;;;-3273.20;53.90;;;;;;5061116;28;20537;-68
2024/01/10 00:08:33;;;;;;;0.60;0.60;;;-3273.20;53.90;;;;;;5051536;28;20051;-68
2024/01/10 00:10:59;;;;;;;0.85;0.85;;;-3273.20;54.00;;;;;;5050980;28;20052;-68
2024/01/10 00:13:24;;;;;;;0.70;0.70;;;-3273.20;54.00;;;;;;5051261;28;20033;-68
2024/01/10 00:15:50;;;;;;;0.63;0.63;;;-3273.20;54.10;;;;;;5050840;28;20472;-68
2024/01/10 00:18:16;;;;;;;0.77;0.77;;;-3273.30;54.30;;;;;;5056090;28;20033;-68
2024/01/10 00:20:41;;;;;;;0.80;0.80;;;-3273.30;54.10;;;;;;5062161;28;20468;-68
2024/01/10 00:23:07;;;;;;;2.15;2.05;;;-3273.30;54.10;;;;;;5071256;28;20059;-68
2024/01/10 00:25:33;;;;;;;0.70;0.70;;;-3273.30;54.00;;;;;;5053043;28;20032;-68
2024/01/10 00:27:58;;;;;;;1.85;1.60;;;-3273.20;53.80;;;;;;5051073;28;20469;-68
2024/01/10 00:30:25;;;;;;;0.70;0.70;;;-3273.20;53.70;;;;;;5050934;28;20029;-68
2024/01/10 00:32:51;;;;;;;0.60;0.60;;;-3273.10;53.70;;;;;;5050797;28;20108;-68
2024/01/10 00:35:16;;;;;;;0.98;0.98;;;-3273.10;53.70;;;;;;5050672;28;20112;-68
2024/01/10 00:37:42;;;;;;;0.80;0.80;;;-3273.00;53.70;;;;;;5068604;28;20104;-69
2024/01/10 00:40:08;;;;;;;1.30;1.27;;;-3272.90;53.70;;;;;;5070645;28;20052;-68
2024/01/10 00:42:33;;;;;;;1.38;1.35;;;-3272.90;53.70;;;;;;5070413;28;20039;-68
2024/01/10 00:44:59;;;;;;;1.35;1.27;;;-3272.90;53.70;;;;;;5081872;28;20104;-69
2024/01/10 00:47:24;;;;;;;0.70;0.70;;;-3272.90;53.90;;;;;;5051452;28;20033;-70
2024/01/10 00:49:50;;;;;;;1.55;1.45;;;-3272.80;54.00;;;;;;5073953;28;20039;-70
2024/01/10 00:52:15;;;;;;;0.63;0.63;;;-3272.90;53.90;;;;;;5089367;28;20028;-71
2024/01/10 00:54:41;;;;;;;0.70;0.70;;;-3272.80;54.00;;;;;;5089795;28;20505;-70
2024/01/10 00:57:07;;;;;;;0.98;0.98;;;-3272.80;54.00;;;;;;5090688;28;20024;-70
2024/01/10 00:59:32;;;;;;;0.70;0.70;;;-3272.80;54.00;;;;;;5090806;28;20581;-69
2024/01/10 01:01:58;;;;;;;0.65;0.65;;;-3272.80;53.90;;;;;;5081594;28;20051;-69
2024/01/10 01:04:23;;;;;;;0.70;0.70;;;-3272.70;53.90;;;;;;5074479;28;20039;-69
2024/01/10 01:06:48;;;;;;;1.30;1.23;;;-3272.70;53.90;;;;;;5074173;28;20041;-69
2024/01/10 01:09:15;;;;;;;0.70;0.70;;;-3272.60;54.00;;;;;;5073144;28;20028;-69
2024/01/10 01:11:41;;;;;;;0.77;0.77;;;-3272.70;54.00;;;;;;5073994;28;20426;-69
2024/01/10 01:14:07;;;;;;;2.45;2.25;;;-3272.60;54.30;;;;;;5074118;28;20025;-69
2024/01/10 01:16:33;;;;;;;0.88;0.88;;;-3272.60;54.30;;;;;;5073998;28;20523;-69
2024/01/10 01:18:58;;;;;;;0.80;0.80;;;-3272.60;54.10;;;;;;5073753;28;20107;-69
2024/01/10 01:21:24;;;;;;;2.58;1.70;;;-3272.60;54.00;;;;;;5073864;28;20025;-69
2024/01/10 01:23:49;;;;;;;0.70;0.70;;;-3272.50;54.10;;;;;;5074198;28;20068;-69
2024/01/10 01:26:15;;;;;;;0.80;0.80;;;-3272.50;54.10;;;;;;5073676;28;20090;-69
2024/01/10 01:28:40;;;;;;;0.63;0.63;;;-3272.50;54.10;;;;;;5073935;28;20502;-69
2024/01/10 01:31:06;;;;;;;0.90;0.90;;;-3272.50;54.10;;;;;;5073390;28;20039;-69
2024/01/10 01:33:32;;;;;;;0.80;0.80;;;-3272.40;54.20;;;;;;5073660;28;20451;-69
2024/01/10 01:35:58;;;;;;;0.70;0.70;;;-3272.40;54.40;;;;;;5073490;28;20068;-69
2024/01/10 01:38:23;;;;;;;1.63;1.15;;;-3272.40;54.50;;;;;;5073753;28;20032;-69
2024/01/10 01:40:49;;;;;;;0.70;0.70;;;-3272.40;54.50;;;;;;5073350;28;20033;-69
2024/01/10 01:43:18;;;;;;;0.80;0.80;;;-3272.40;54.40;;;;;;5073396;28;20036;-69
2024/01/10 01:45:44;;;;;;;0.70;0.70;;;-3272.30;54.40;;;;;;5073268;28;20511;-69
2024/01/10 01:48:10;;;;;;;1.05;1.05;;;-3272.40;54.40;;;;;;5073366;28;20079;-69
2024/01/10 01:50:35;;;;;;;0.90;0.90;;;-3272.30;54.40;;;;;;5073147;28;20155;-68
2024/01/10 01:53:01;;;;;;;2.25;2.05;;;-3272.40;54.40;;;;;;5072988;28;20477;-69
2024/01/10 01:55:26;;;;;;;0.70;0.70;;;-3272.30;54.50;;;;;;5073285;28;20078;-69
2024/01/10 01:57:52;;;;;;;1.02;1.00;;;-3272.30;54.40;;;;;;5073111;28;20040;-69
2024/01/10 02:00:17;;;;;;;1.25;1.25;;;-3272.30;54.50;;;;;;5063664;28;20029;-69
2024/01/10 02:02:44;;;;;;;0.60;0.60;;;-3272.30;54.70;;;;;;5057872;28;20086;-68
2024/01/10 02:05:09;;;;;;;1.58;1.48;;;-3272.20;54.90;;;;;;5056209;28;20025;-71
2024/01/10 02:07:35;;;;;;;0.65;0.65;;;-3272.20;55.00;;;;;;5063852;28;20025;-68
2024/01/10 02:10:01;;;;;;;0.80;0.80;;;-3272.20;54.90;;;;;;5053023;28;20464;-68
2024/01/10 02:12:26;;;;;;;0.77;0.77;;;-3272.20;55.00;;;;;;5055994;28;20025;-71
2024/01/10 02:14:52;;;;;;;1.15;1.15;;;-3272.10;54.90;;;;;;5069384;28;20480;-69
2024/01/10 02:17:18;;;;;;;0.70;0.70;;;-3272.10;55.00;;;;;;5068308;28;20032;-69
2024/01/10 02:19:43;;;;;;;0.85;0.85;;;-3272.10;55.20;;;;;;5064582;28;20021;-70
2024/01/10 02:22:10;;;;;;;1.77;1.67;;;-3272.10;55.10;;;;;;5061443;28;20563;-69
2024/01/10 02:24:36;;;;;;;0.75;0.75;;;-3272.10;55.00;;;;;;5059456;28;20492;-70
2024/01/10 02:27:02;;;;;;;0.70;0.70;;;-3272.00;54.90;;;;;;5059026;28;20047;-68
2024/01/10 02:29:28;;;;;;;0.73;0.73;;;-3271.90;54.80;;;;;;5059296;28;20032;-69
2024/01/10 02:31:53;;;;;;;0.60;0.60;;;-3271.90;54.80;;;;;;5063658;28;20445;-69
2024/01/10 02:34:19;;;;;;;0.70;0.70;;;-3271.90;54.90;;;;;;5057682;28;20032;-69
2024/01/10 02:36:45;;;;;;;0.77;0.77;;;-3271.80;54.90;;;;;;5057970;28;20021;-69
2024/01/10 02:39:10;;;;;;;1.00;1.00;;;-3271.70;55.00;;;;;;5066801;28;20079;-69
2024/01/10 02:41:36;;;;;;;0.70;0.70;;;-3271.70;55.00;;;;;;5059612;28;20025;-69
2024/01/10 02:44:02;;;;;;;0.80;0.80;;;-3271.70;55.10;;;;;;5059228;28;20045;-69
2024/01/10 02:46:27;;;;;;;1.10;1.10;;;-3271.60;55.10;;;;;;5069278;28;20032;-68
2024/01/10 02:48:55;;;;;;;0.60;0.60;;;-3271.60;55.10;;;;;;5057101;28;20033;-69
2024/01/10 02:51:21;;;;;;;1.00;1.00;;;-3271.60;55.10;;;;;;5058366;28;20032;-68
2024/01/10 02:53:47;;;;;;;0.60;0.60;;;-3271.60;55.20;;;;;;5059069;28;20041;-69
2024/01/10 02:56:12;;;;;;;0.80;0.80;;;-3271.60;55.20;;;;;;5066645;28;20388;-69
2024/01/10 02:58:38;;;;;;;0.80;0.80;;;-3271.60;55.10;;;;;;5065839;28;20036;-69
2024/01/10 03:01:03;;;;;;;0.70;0.70;;;-3271.60;55.00;;;;;;5051016;28;20514;-69
2024/01/10 03:03:29;;;;;;;0.80;0.80;;;-3271.50;55.00;;;;;;5061886;28;20043;-69
2024/01/10 03:05:54;;;;;;;0.60;0.60;;;-3271.50;55.00;;;;;;5063345;28;20123;-69
2024/01/10 03:08:20;;;;;;;0.70;0.70;;;-3271.50;55.00;;;;;;5062016;28;20177;-67
2024/01/10 03:10:45;;;;;;;0.70;0.70;;;-3271.50;55.00;;;;;;5069314;28;20029;-66
2024/01/10 03:13:11;;;;;;;0.80;0.80;;;-3271.50;55.00;;;;;;5061702;28;20036;-68
2024/01/10 03:15:36;;;;;;;0.90;0.90;;;-3271.50;55.10;;;;;;5058216;28;20029;-67
2024/01/10 03:18:02;;;;;;;0.80;0.80;;;-3271.50;55.10;;;;;;5058883;28;20113;-67
2024/01/10 03:20:27;;;;;;;0.80;0.80;;;-3271.40;55.10;;;;;;5053921;28;20024;-66
2024/01/10 03:22:53;;;;;;;0.70;0.70;;;-3271.40;55.20;;;;;;5059033;28;20036;-67
2024/01/10 03:25:18;;;;;;;0.80;0.80;;;-3271.40;55.10;;;;;;5070245;28;20129;-66
2024/01/10 03:27:44;;;;;;;0.70;0.70;;;-3271.40;55.10;;;;;;5066123;28;20025;-67
2024/01/10 03:30:10;;;;;;;0.70;0.70;;;-3271.40;55.10;;;;;;5051698;28;20373;-66
2024/01/10 03:32:35;;;;;;;0.60;0.60;;;-3271.50;55.40;;;;;;5051464;28;20200;-67
2024/01/10 03:35:01;;;;;;;0.75;0.75;;;-3271.50;55.40;;;;;;5051254;28;20069;-66
2024/01/10 03:37:26;;;;;;;0.70;0.70;;;-3271.50;55.30;;;;;;5057761;28;20108;-66
2024/01/10 03:39:52;;;;;;;3.60;3.30;;;-3271.50;55.30;;;;;;5086256;28;20048;-68
2024/01/10 03:42:17;;;;;;;0.70;0.70;;;-3271.50;55.40;;;;;;5071371;28;20021;-66
2024/01/10 03:44:43;;;;;;;0.60;0.60;;;-3271.50;55.40;;;;;;5071568;28;20024;-68
2024/01/10 03:47:08;;;;;;;0.63;0.63;;;-3271.60;55.30;;;;;;5071143;28;20495;-66
2024/01/10 03:49:34;;;;;;;0.70;0.70;;;-3271.50;55.30;;;;;;5071144;28;20060;-67
2024/01/10 03:51:59;;;;;;;0.70;0.70;;;-3271.60;55.30;;;;;;5071231;28;20055;-68
2024/01/10 03:54:25;;;;;;;0.70;0.70;;;-3271.60;55.30;;;;;;5070941;28;20086;-68
2024/01/10 03:56:50;;;;;;;0.70;0.70;;;-3271.60;55.30;;;;;;5071221;28;20037;-68
2024/01/10 03:59:16;;;;;;;0.60;0.60;;;-3271.60;55.40;;;;;;5071289;28;20104;-66
2024/01/10 04:01:41;;;;;;;1.05;1.05;;;-3271.50;55.40;;;;;;5071386;28;20032;-66
2024/01/10 04:04:07;;;;;;;0.50;0.50;;;-3271.60;55.30;;;;;;5071535;28;20036;-66
2024/01/10 04:06:33;;;;;;;0.82;0.82;;;-3271.50;55.30;;;;;;5070954;28;20032;-68
2024/01/10 04:08:58;;;;;;;1.17;1.17;;;-3271.50;55.30;;;;;;5071506;28;20108;-66
2024/01/10 04:11:24;;;;;;;0.80;0.80;;;-3271.50;55.30;;;;;;5071002;28;20071;-68
2024/01/10 04:13:50;;;;;;;1.55;1.45;;;-3271.50;55.20;;;;;;5071161;28;20182;-66
2024/01/10 04:16:15;;;;;;;0.88;0.88;;;-3271.50;55.30;;;;;;5067237;28;20112;-69
2024/01/10 04:18:41;;;;;;;0.75;0.75;;;-3271.50;55.30;;;;;;5051222;28;20029;-68
2024/01/10 04:21:07;;;;;;;0.70;0.70;;;-3271.50;55.50;;;;;;5051104;28;20029;-69
2024/01/10 04:23:33;;;;;;;1.10;1.10;;;-3271.50;55.70;;;;;;5051051;28;20022;-68
2024/01/10 04:26:00;;;;;;;0.80;0.80;;;-3271.50;55.80;;;;;;5050840;28;20420;-69
2024/01/10 04:28:25;;;;;;;0.80;0.80;;;-3271.60;55.70;;;;;;5051054;28;20029;-69
2024/01/10 04:30:51;;;;;;;0.80;0.80;;;-3271.50;55.90;;;;;;5050798;28;20480;-68
2024/01/10 04:33:16;;;;;;;0.80;0.80;;;-3271.60;56.00;;;;;;5051088;28;20051;-69
2024/01/10 04:35:42;;;;;;;0.70;0.70;;;-3271.60;56.60;;;;;;5051514;28;20124;-68
2024/01/10 04:38:07;;;;;;;0.70;0.70;;;-3271.70;56.90;;;;;;5054608;28;20037;-69
2024/01/10 04:40:33;;;;;;;10.25;2.05;;;-3271.70;57.00;;;;;;5053148;28;20533;-69
2024/01/10 04:42:58;;;;;;;0.98;0.98;;;-3271.70;57.20;;;;;;5054674;28;20096;-69
2024/01/10 04:45:24;;;;;;;5.00;3.15;;;-3271.80;57.30;;;;;;5054755;28;20079;-68
2024/01/10 04:47:49;;;;;;;0.85;0.85;;;-3271.90;57.30;;;;;;5054686;28;20032;-69
2024/01/10 04:50:15;;;;;;;0.60;0.60;;;-3271.90;57.30;;;;;;5054355;28;20091;-68
2024/01/10 04:52:40;;;;;;;0.80;0.80;;;-3271.90;57.20;;;;;;5054068;28;20029;-70
2024/01/10 04:55:07;;;;;;;1.48;1.40;;;-3271.90;57.40;;;;;;5054129;28;20074;-70
2024/01/10 04:57:33;;;;;;;1.70;1.60;;;-3272.00;57.50;;;;;;5054199;28;20028;-70
2024/01/10 04:59:59;;;;;;;0.90;0.90;;;-3272.00;57.70;;;;;;5054133;28;20100;-69
2024/01/10 05:02:24;;;;;;;0.75;0.75;;;-3272.00;57.90;;;;;;5054158;28;20465;-70
2024/01/10 05:04:50;;;;;;;0.80;0.80;;;-3272.10;57.90;;;;;;5054245;28;20159;-70
2024/01/10 05:07:15;;;;;;;0.75;0.75;;;-3272.20;57.70;;;;;;5053978;28;20068;-70
2024/01/10 05:09:40;;;;;;;0.80;0.80;;;-3272.20;57.50;;;;;;5054011;28;20116;-70
2024/01/10 05:12:06;;;;;;;0.63;0.63;;;-3272.20;57.20;;;;;;5053871;28;20434;-70
2024/01/10 05:14:32;;;;;;;2.08;1.98;;;-3272.20;57.20;;;;;;5054188;28;20048;-70
2024/01/10 05:16:57;;;;;;;1.13;1.13;;;-3272.20;57.20;;;;;;5063511;28;20411;-70
2024/01/10 05:19:23;;;;;;;1.08;1.08;;;-3272.20;57.40;;;;;;5074519;28;20121;-70
2024/01/10 05:21:48;;;;;;;2.38;2.22;;;-3272.20;57.80;;;;;;5073742;28;20044;-69
2024/01/10 05:24:14;;;;;;;1.10;1.08;;;-3272.30;58.10;;;;;;5074152;28;20066;-70
2024/01/10 05:26:39;;;;;;;2.00;1.85;;;-3272.40;58.20;;;;;;5073676;28;20052;-67
2024/01/10 05:29:05;;;;;;;0.63;0.63;;;-3272.40;58.00;;;;;;5074207;28;20464;-67
2024/01/10 05:31:30;;;;;;;1.00;1.00;;;-3272.50;58.00;;;;;;5073672;28;20113;-68
2024/01/10 05:33:56;;;;;;;0.70;0.70;;;-3272.50;57.80;;;;;;5074123;28;20467;-68
2024/01/10 05:36:22;;;;;;;1.35;1.25;;;-3272.50;57.50;;;;;;5073541;28;20036;-67
2024/01/10 05:38:48;;;;;;;0.70;0.70;;;-3272.40;57.30;;;;;;5059094;28;20029;-67
2024/01/10 05:41:14;;;;;;;2.08;1.98;;;-3272.40;56.90;;;;;;5053470;28;20379;-67
2024/01/10 05:43:40;;;;;;;0.70;0.70;;;-3272.40;56.80;;;;;;5053744;28;20029;-67
2024/01/10 05:46:05;;;;;;;1.25;1.15;;;-3272.30;56.80;;;;;;5053119;28;20039;-68
2024/01/10 05:48:32;;;;;;;5.78;2.90;;;-3272.30;57.00;;;;;;5053785;28;20102;-67
2024/01/10 05:50:57;;;;;;;0.70;0.70;;;-3272.30;57.00;;;;;;5051992;28;20476;-67
2024/01/10 05:53:24;;;;;;;0.70;0.70;;;-3272.20;56.80;;;;;;5053092;28;20040;-67
2024/01/10 05:55:50;;;;;;;0.70;0.70;;;-3272.20;56.50;;;;;;5051705;28;20039;-67
2024/01/10 05:58:16;;;;;;;1.13;1.13;;;-3272.10;56.30;;;;;;5055072;28;20104;-67
2024/01/10 06:00:41;;;;;;;1.13;1.13;;;-3272.10;56.70;;;;;;5054539;28;20469;-68
2024/01/10 06:03:07;;;;;;;0.70;0.70;;;-3272.10;57.00;;;;;;5057154;28;20048;-68
2024/01/10 06:05:33;;;;;;;0.60;0.60;;;-3272.10;57.10;;;;;;5073200;28;20383;-68
2024/01/10 06:07:58;;;;;;;0.80;0.80;;;-3272.10;57.10;;;;;;5066401;28;20483;-67
2024/01/10 06:10:24;;;;;;;0.65;0.65;;;-3272.10;57.00;;;;;;5052916;28;20477;-67
2024/01/10 06:12:50;;;;;;;2.83;1.95;;;-3272.10;57.10;;;;;;5052795;28;20048;-68
2024/01/10 06:15:15;;;;;;;1.40;1.30;;;-3272.10;57.00;;;;;;5052784;28;20036;-67
2024/01/10 06:17:41;;;;;;;0.63;0.63;;;-3272.10;57.00;;;;;;5051396;28;20033;-67
2024/01/10 06:20:07;;;;;;;0.90;0.90;;;-3272.10;57.10;;;;;;5059165;28;20432;-67
2024/01/10 06:22:33;;;;;;;2.28;1.50;;;-3272.10;57.30;;;;;;5072364;28;20043;-67
2024/01/10 06:24:58;;;;;;;0.68;0.68;;;-3272.10;57.40;;;;;;5072485;28;20020;-67
2024/01/10 06:27:24;;;;;;;0.73;0.73;;;-3272.10;57.40;;;;;;5071343;28;20037;-67
2024/01/10 06:29:49;;;;;;;1.42;1.38;;;-3272.20;57.30;;;;;;5072429;28;20036;-67
2024/01/10 06:32:15;;;;;;;1.75;1.65;;;-3272.20;57.10;;;;;;5072404;28;20029;-68
2024/01/10 06:34:41;;;;;;;0.75;0.75;;;-3272.10;56.90;;;;;;5072570;28;20050;-67
2024/01/10 06:37:07;;;;;;;1.05;1.05;;;-3272.10;56.80;;;;;;5072810;28;20070;-68
2024/01/10 06:39:33;;;;;;;0.60;0.60;;;-3272.00;56.70;;;;;;5092586;28;20028;-67
2024/01/10 06:41:59;;;;;;;0.70;0.70;;;-3272.00;56.60;;;;;;5092793;28;20467;-67
2024/01/10 06:44:24;;;;;;;1.10;1.10;;;-3272.00;56.50;;;;;;5092953;28;20035;-68
2024/01/10 06:46:50;;;;;;;0.80;0.80;;;-3272.00;56.30;;;;;;5090979;28;20474;-68
2024/01/10 06:49:16;;;;;;;0.75;0.75;;;-3271.90;56.30;;;;;;5091507;28;20078;-67
2024/01/10 06:51:41;;;;;;;1.00;1.00;;;-3271.90;56.30;;;;;;5092485;28;20062;-68
2024/01/10 06:54:08;;;;;;;0.80;0.80;;;-3271.90;56.50;;;;;;5092191;28;20040;-67
2024/01/10 06:56:34;;;;;;;0.70;0.70;;;-3271.90;56.90;;;;;;5086442;28;20020;-67
2024/01/10 06:59:00;;;;;;;0.68;0.68;;;-3271.90;56.80;;;;;;5071568;28;20543;-67
2024/01/10 07:01:26;;;;;;;11.30;2.00;;;-3271.90;56.50;;;;;;5071932;28;20016;-67
2024/01/10 07:03:55;;;;;;;0.82;0.82;;;-3271.80;56.30;;;;;;5072036;28;20036;-67
2024/01/10 07:06:23;;;;;;;2.05;1.95;;;-3271.80;56.30;;;;;;5071765;28;20067;-69
2024/01/10 07:08:50;;;;;;;0.70;0.70;;;-3271.80;56.60;;;;;;5072245;28;20032;-67
2024/01/10 07:11:16;;;;;;;0.70;0.70;;;-3271.70;56.50;;;;;;5072117;28;20489;-67
2024/01/10 07:13:42;;;;;;;0.70;0.70;;;-3271.70;56.30;;;;;;5077531;28;20036;-68
2024/01/10 07:16:09;;;;;;;0.90;0.90;;;-3271.70;56.20;;;;;;5065637;28;20016;-68
2024/01/10 07:18:34;;;;;;;1.77;1.40;;;-3271.60;56.00;;;;;;5070520;28;20028;-67
2024/01/10 07:21:00;;;;;;;0.70;0.70;;;-3271.60;55.90;;;;;;5052396;28;20043;-67
2024/01/10 07:23:26;;;;;;;0.70;0.70;;;-3271.60;55.90;;;;;;5051200;28;20445;-67
2024/01/10 07:25:52;;;;;;;0.80;0.80;;;-3271.50;55.90;;;;;;5050852;28;20108;-67
2024/01/10 07:28:18;;;;;;;0.70;0.70;;;-3271.50;55.90;;;;;;5051198;28;20137;-67
2024/01/10 07:30:44;;;;;;;0.70;0.70;;;-3271.40;55.90;;;;;;5051433;28;20037;-68
2024/01/10 07:33:10;;;;;;;0.95;0.95;;;-3271.40;55.90;;;;;;5068415;28;20035;-67
2024/01/10 07:35:37;;;;;;;1.60;1.50;;;-3271.40;55.90;;;;;;5059702;28;20043;-68
2024/01/10 07:38:03;;;;;;;0.75;0.75;;;-3271.40;56.00;;;;;;5060286;28;20077;-68
2024/01/10 07:40:29;;;;;;;1.27;1.27;;;-3271.40;56.00;;;;;;5049905;28;20033;-68
2024/01/10 07:42:55;;;;;;;2.75;2.55;;;-3271.40;56.40;;;;;;5053533;28;20029;-68
2024/01/10 07:45:21;;;;;;;2.65;1.35;;;-3271.60;56.70;;;;;;5056641;28;20017;-68
2024/01/10 07:47:46;;;;;;;0.95;0.95;;;-3271.70;57.20;;;;;;5057407;28;20028;-67
2024/01/10 07:50:14;;;;;;;0.75;0.75;;;-3271.90;57.80;;;;;;5053921;28;20028;-67
2024/01/10 07:52:40;;;;;;;0.63;0.63;;;-3272.20;58.30;;;;;;5050177;28;20665;-67
2024/01/10 07:55:06;;;;;;;0.93;0.93;;;-3272.50;58.80;;;;;;5060480;28;20024;-68
2024/01/10 07:57:36;;;;;;;1.25;1.25;;;-3272.80;59.20;;;;;;5068230;28;20029;-67
2024/01/10 08:00:03;;;;;;;13.95;2.95;;;-3273.20;59.40;;;;;;5071186;28;20506;-68
2024/01/10 08:02:33;;;;;;;2.55;2.35;;;-3273.40;59.60;;;;;;5068933;28;20036;-68
2024/01/10 08:04:59;;;;;;;0.88;0.88;;;-3273.80;59.90;;;;;;5070609;28;20024;-68
2024/01/10 08:07:25;;;;;;;0.70;0.70;;;-3274.20;60.10;;;;;;5070090;28;20028;-68
2024/01/10 08:09:50;;;;;;;0.70;0.70;;;-3274.50;60.20;;;;;;5072119;28;20102;-68
2024/01/10 08:12:16;;;;;;;1.00;1.00;;;-3274.90;60.00;;;;;;5073511;28;20066;-68
2024/01/10 08:14:45;;;;;;;0.70;0.70;;;-3275.20;59.90;;;;;;5074855;28;20115;-68
2024/01/10 08:17:11;;;;;;;1.02;1.02;;;-3275.60;59.70;;;;;;5072797;28;20020;-69
2024/01/10 08:19:37;;;;;;;0.85;0.85;;;-3275.90;59.50;;;;;;5074990;28;20028;-68
2024/01/10 08:22:03;;;;;;;1.83;1.73;;;-3276.20;59.40;;;;;;5072439;28;20020;-69
2024/01/10 08:24:28;;;;;;;0.70;0.70;;;-3276.50;59.20;;;;;;5074461;28;20162;-68
2024/01/10 08:26:54;;;;;;;0.80;0.80;;;0.00;58.90;;;;;;5074709;28;20120;-68
2024/01/10 08:29:20;;;;;;;0.88;0.88;;;0.20;58.30;;;;;;5066672;28;20464;-68
2024/01/10 08:31:46;;;;;;;0.80;0.80;;;0.50;58.20;;;;;;5054555;28;20147;-69
2024/01/10 08:34:11;;;;;;;1.10;1.10;;;0.80;58.00;;;;;;5054865;28;20063;-69
2024/01/10 08:36:38;;;;;;;0.70;0.70;;;1.10;57.90;;;;;;5071530;28;20025;-68
2024/01/10 08:39:04;;;;;;;1.13;1.13;;;1.50;58.00;;;;;;5075032;28;20024;-68
2024/01/10 08:41:30;;;;;;;0.75;0.75;;;1.80;57.70;;;;;;5073179;28;20021;-69
2024/01/10 08:43:55;;;;;;;0.85;0.85;;;2.10;57.30;;;;;;5074749;28;20422;-69
2024/01/10 08:46:21;;;;;;;1.13;1.13;;;2.40;56.50;;;;;;5072858;28;20151;-68
2024/01/10 08:48:47;;;;;;;0.82;0.82;;;2.60;55.80;;;;;;5074602;28;20044;-69
2024/01/10 08:51:16;;;;;;;4.22;1.88;;;2.80;55.60;;;;;;5073373;28;20169;-69
2024/01/10 08:53:41;;;;;;;1.98;1.88;;;3.10;55.40;;;;;;5074184;28;20078;-69
2024/01/10 08:56:07;;;;;;;0.90;0.90;;;3.30;54.80;;;;;;5072941;28;20097;-69
2024/01/10 08:58:32;;;;;;;0.70;0.70;;;3.50;54.40;;;;;;5054654;28;20477;-69
2024/01/10 09:00:58;;;;;;;2.60;1.15;;;3.60;53.90;;;;;;5054228;28;20017;-69
2024/01/10 09:03:23;;;;;;;1.25;1.23;;;3.80;54.00;;;;;;5064126;28;20117;-69
2024/01/10 09:05:49;;;;;;;0.95;0.95;;;4.00;53.10;;;;;;5074140;28;20498;-69
2024/01/10 09:08:15;;;;;;;2.20;1.80;;;4.10;52.40;;;;;;5066067;28;20041;-69
2024/01/10 09:10:41;;;;;;;2.22;2.03;;;4.20;52.30;;;;;;5054075;28;20028;-70
2024/01/10 09:13:07;;;;;;;1.42;1.38;;;4.40;52.40;;;;;;5053837;28;20112;-69
2024/01/10 09:15:32;;;;;;;0.90;0.90;;;4.50;52.30;;;;;;5053964;28;20020;-69
2024/01/10 09:17:58;;;;;;;0.93;0.93;;;4.70;52.00;;;;;;5059540;28;20036;-69
2024/01/10 09:20:23;;;;;;;4.03;1.67;;;4.80;51.90;;;;;;5074253;28;20463;-69
2024/01/10 09:22:49;;;;;;;2.22;1.60;;;5.00;51.70;;;;;;5071832;28;20037;-69
2024/01/10 09:25:14;;;;;;;1.30;1.27;;;5.20;51.80;;;;;;5070700;28;20039;-70
2024/01/10 09:27:43;;;;;;;1.05;1.05;;;5.30;51.90;;;;;;5074061;28;20392;-69
2024/01/10 09:30:09;;;;;;;1.65;1.55;;;5.50;51.60;;;;;;5058325;28;20484;-69
2024/01/10 09:32:36;;;;;;;1.48;1.38;;;5.70;51.00;;;;;;5053982;28;20326;-69
2024/01/10 09:35:01;;;;;;;1.45;1.38;;;5.80;50.60;;;;;;5053227;28;20083;-69
2024/01/10 09:37:27;;;;;;;0.90;0.90;;;5.80;49.10;;;;;;5054180;28;20041;-68
2024/01/10 09:39:53;;;;;;;1.17;1.10;;;5.80;49.60;;;;;;5053486;28;20465;-68
2024/01/10 09:42:20;;;;;;;1.00;1.00;;;5.90;48.80;;;;;;5068935;28;20025;-69
2024/01/10 09:44:47;;;;;;;0.93;0.90;;;6.00;48.90;;;;;;5073634;28;20032;-68
2024/01/10 09:47:14;;;;;;;3.03;2.08;;;6.00;47.30;;;;;;5062617;28;20028;-68
2024/01/10 09:49:40;;;;;;;1.63;1.52;;;5.90;47.00;;;;;;5053528;28;20067;-68
2024/01/10 09:52:16;;;;;;;0.75;0.75;;;5.90;46.50;;;;;;5053026;28;20444;-69
2024/01/10 09:54:45;;;;;;;0.80;0.80;;;5.90;46.80;;;;;;5073244;28;20067;-68
2024/01/10 09:57:10;;;;;;;0.80;0.80;;;6.00;45.80;;;;;;5073178;28;20096;-68
2024/01/10 09:59:36;;;;;;;2.15;2.00;;;6.00;46.20;;;;;;5079082;28;20111;-68
2024/01/10 10:02:04;;;;;;;1.58;1.48;;;6.00;46.00;;;;;;5093355;28;20046;-68
2024/01/10 10:04:30;;;;;;;0.88;0.88;;;6.10;46.10;;;;;;5069415;28;20461;-68
2024/01/10 10:07:01;;;;;;;1.73;1.63;;;6.10;45.40;;;;;;5053093;28;20163;-70
2024/01/10 10:09:28;;;;;;;1.20;1.15;;;6.20;45.70;;;;;;5051682;28;20035;-70
2024/01/10 10:11:54;;;;;;;1.10;1.10;;;6.30;45.60;;;;;;5052639;28;20035;-70
2024/01/10 10:14:20;;;;;;;1.88;1.77;;;6.40;45.50;;;;;;5053289;28;20064;-70
2024/01/10 10:16:46;;;;;;;1.38;1.30;;;6.50;45.30;;;;;;5051672;28;20029;-70
2024/01/10 10:19:12;;;;;;;1.90;1.80;;;6.60;45.30;;;;;;5053092;28;20041;-70
2024/01/10 10:21:38;;;;;;;1.30;1.23;;;6.70;44.40;;;;;;5052128;28;20020;-70
2024/01/10 10:24:05;;;;;;;1.60;1.48;;;6.70;44.40;;;;;;5062249;28;20551;-70
2024/01/10 10:26:32;;;;;;;0.75;0.75;;;6.80;44.20;;;;;;5056720;28;20048;-69
2024/01/10 10:28:58;;;;;;;0.70;0.70;;;6.80;43.80;;;;;;5057577;28;20037;-70
2024/01/10 10:31:24;;;;;;;3.05;2.22;;;6.90;44.30;;;;;;5071128;28;20506;-70
2024/01/10 10:33:51;;;;;;;1.00;1.00;;;7.10;44.80;;;;;;5051684;28;20480;-70
2024/01/10 10:36:17;;;;;;;1.27;1.10;;;7.20;44.80;;;;;;5051932;28;20070;-70
2024/01/10 10:38:42;;;;;;;0.90;0.90;;;7.30;43.90;;;;;;5052414;28;20037;-70
2024/01/10 10:41:11;;;;;;;0.90;0.90;;;7.40;43.60;;;;;;5051406;28;20020;-70
2024/01/10 10:43:39;;;;;;;3.47;2.50;;;7.60;44.00;;;;;;5055442;28;20456;-70
2024/01/10 10:46:06;;;;;;;0.85;0.85;;;7.70;43.90;;;;;;5072198;28;20026;-70
2024/01/10 10:48:36;;;;;;;1.30;1.20;;;7.80;43.40;;;;;;5069101;28;20414;-69
2024/01/10 10:51:08;;;;;;;1.08;1.08;;;7.80;43.50;;;;;;5051819;28;20048;-70
2024/01/10 10:53:41;;;;;;;1.17;1.10;;;7.90;43.10;;;;;;5057440;28;20571;-70
2024/01/10 10:56:08;;;;;;;1.17;1.15;;;7.90;42.50;;;;;;5071737;28;20113;-70
2024/01/10 10:58:36;;;;;;;1.38;1.33;;;8.00;42.90;;;;;;5061601;28;20065;-70
2024/01/10 11:01:05;;;;;;;0.85;0.85;;;8.10;42.40;;;;;;5051760;28;20021;-70
2024/01/10 11:03:33;;;;;;;0.80;0.80;;;8.00;41.20;;;;;;5051777;28;20415;-70
2024/01/10 11:06:00;;;;;;;0.93;0.93;;;8.10;41.70;;;;;;5063092;28;20033;-70
2024/01/10 11:08:28;;;;;;;1.17;1.17;;;8.20;41.80;;;;;;5052027;28;20033;-70
2024/01/10 11:10:55;;;;;;;0.73;0.73;;;8.20;42.30;;;;;;5054798;28;20032;-70
2024/01/10 11:13:53;;;;;;;0.95;0.95;;;8.30;42.50;;;;;;5051718;28;20492;-70
2024/01/10 11:16:58;;;;;;;1.77;1.67;;;8.50;42.20;;;;;;5053080;28;20083;-70
2024/01/10 11:19:33;;;;;;;2.15;2.00;;;8.50;41.90;;;;;;5051096;28;20060;-69
2024/01/10 11:22:20;;;;;;;0.70;0.70;;;8.70;42.50;;;;;;5057404;28;20021;-69
2024/01/10 11:24:45;;;;;;;2.88;2.53;;;8.80;42.00;;;;;;5071772;28;20036;-69
2024/01/10 11:27:12;;;;;;;0.60;0.60;;;8.80;40.00;;;;;;5062154;28;20599;-69
2024/01/10 11:29:42;;;;;;;1.15;1.13;;;8.80;40.60;;;;;;5053893;28;20384;-69
2024/01/10 11:32:16;;;;;;;0.77;0.77;;;8.90;41.20;;;;;;5052104;28;20388;-69
2024/01/10 11:34:53;;;;;;;2.05;1.85;;;8.90;40.70;;;;;;5068907;28;20620;-69
2024/01/10 11:37:19;;;;;;;0.90;0.90;;;8.90;40.50;;;;;;5064016;28;20025;-69
2024/01/10 11:39:45;;;;;;;1.60;1.50;;;8.80;39.00;;;;;;5064061;28;20029;-69
2024/01/10 11:42:11;;;;;;;4.95;1.38;;;8.70;39.60;;;;;;5070847;28;20024;-68
2024/01/10 11:44:51;;;;;;;1.00;0.90;;;8.70;39.10;;;;;;5069883;28;20040;-68
2024/01/10 11:47:20;;;;;;;1.75;1.65;;;8.50;38.20;;;;;;5071052;28;20190;-68
2024/01/10 11:50:01;;;;;;;1.08;1.05;;;8.40;38.20;;;;;;5068972;28;20028;-68
2024/01/10 11:52:34;;;;;;;1.30;1.20;;;8.20;38.60;;;;;;5071300;28;20028;-68
2024/01/10 11:55:00;;;;;;;0.82;0.82;;;8.20;39.40;;;;;;5067284;28;20495;-68
2024/01/10 11:57:28;;;;;;;2.78;2.58;;;8.10;39.00;;;;;;5051111;28;20025;-68
2024/01/10 11:59:55;;;;;;;2.75;2.55;;;8.10;39.00;;;;;;5059136;28;20387;-68
2024/01/10 12:02:23;;;;;;;4.07;1.55;;;8.00;39.80;;;;;;5069415;28;20498;-68
2024/01/10 12:04:49;;;;;;;1.80;1.33;;;8.00;39.50;;;;;;5070743;28;20036;-68
2024/01/10 12:07:17;;;;;;;0.90;0.90;;;7.80;38.60;;;;;;5070847;28;20491;-69
2024/01/10 12:09:43;;;;;;;1.23;1.17;;;7.60;38.10;;;;;;5070892;28;20028;-69
2024/01/10 12:12:11;;;;;;;1.38;1.27;;;7.20;37.10;;;;;;5061635;28;20029;-69
2024/01/10 12:14:36;;;;;;;1.10;1.10;;;6.80;37.00;;;;;;5050767;28;20063;-69
2024/01/10 12:17:04;;;;;;;1.95;1.85;;;6.40;37.00;;;;;;5050957;28;20384;-69
2024/01/10 12:19:29;;;;;;;1.20;1.15;;;5.90;37.30;;;;;;5070736;28;20206;-69
2024/01/10 12:21:55;;;;;;;4.85;4.38;;;5.60;37.80;;;;;;5070757;28;20146;-69
2024/01/10 12:24:21;;;;;;;1.45;1.35;;;5.30;38.40;;;;;;5061494;28;20444;-69
2024/01/10 12:26:48;;;;;;;1.08;1.08;;;5.00;38.80;;;;;;5049445;28;20086;-70